sensor_id;sensor_type;location;lat;lon;timestamp;pressure;altitude;pressure_sealevel;temperature;humidity
72444;BME280;60449;52.016;5.414;2022-07-29T00:00:13;101694.97;;;16.37;64.39
72444;BME280;60449;52.016;5.414;2022-07-29T00:01:05;101696.66;;;16.52;63.63
72444;BME280;60449;52.016;5.414;2022-07-29T00:01:54;101700.25;;;16.45;64.05
72444;BME280;60449;52.016;5.414;2022-07-29T00:02:50;101684.34;;;16.28;65.00
72444;BME280;60449;52.016;5.414;2022-07-29T00:03:44;101693.25;;;16.21;66.19
72444;BME280;60449;52.016;5.414;2022-07-29T00:04:35;101695.84;;;16.41;65.19
72444;BME280;60449;52.016;5.414;2022-07-29T00:05:25;101689.53;;;16.62;63.92
72444;BME280;60449;52.016;5.414;2022-07-29T00:06:16;101690.44;;;16.60;64.30
72444;BME280;60449;52.016;5.414;2022-07-29T00:07:06;101688.63;;;16.71;64.82
72444;BME280;60449;52.016;5.414;2022-07-29T00:07:57;101692.16;;;16.70;64.67
72444;BME280;60449;52.016;5.414;2022-07-29T00:08:48;101679.75;;;16.63;64.53
72444;BME280;60449;52.016;5.414;2022-07-29T00:09:38;101677.13;;;16.60;64.65
72444;BME280;60449;52.016;5.414;2022-07-29T00:10:28;101678.88;;;16.59;65.06
72444;BME280;60449;52.016;5.414;2022-07-29T00:11:18;101684.34;;;16.34;65.32
72444;BME280;60449;52.016;5.414;2022-07-29T00:12:10;101682.50;;;16.44;65.58
72444;BME280;60449;52.016;5.414;2022-07-29T00:13:01;101678.09;;;16.40;65.78
72444;BME280;60449;52.016;5.414;2022-07-29T00:13:51;101679.91;;;16.28;65.81
72444;BME280;60449;52.016;5.414;2022-07-29T00:14:56;101678.09;;;16.37;66.18
72444;BME280;60449;52.016;5.414;2022-07-29T00:15:51;101676.44;;;16.11;66.55
72444;BME280;60449;52.016;5.414;2022-07-29T00:16:45;101677.25;;;16.24;66.19
72444;BME280;60449;52.016;5.414;2022-07-29T00:17:36;101670.13;;;16.34;66.12
72444;BME280;60449;52.016;5.414;2022-07-29T00:18:25;101674.56;;;16.35;66.20
72444;BME280;60449;52.016;5.414;2022-07-29T00:19:16;101665.75;;;16.23;65.94
72444;BME280;60449;52.016;5.414;2022-07-29T00:20:07;101671.94;;;16.24;65.85
72444;BME280;60449;52.016;5.414;2022-07-29T00:20:59;101672.84;;;16.20;65.81
72444;BME280;60449;52.016;5.414;2022-07-29T00:21:49;101672.81;;;16.31;65.94
72444;BME280;60449;52.016;5.414;2022-07-29T00:22:56;101669.34;;;16.10;65.83
72444;BME280;60449;52.016;5.414;2022-07-29T00:23:45;101669.34;;;16.10;65.89
72444;BME280;60449;52.016;5.414;2022-07-29T00:24:38;101668.44;;;16.09;67.54
72444;BME280;60449;52.016;5.414;2022-07-29T00:25:27;101672.81;;;16.27;67.59
72444;BME280;60449;52.016;5.414;2022-07-29T00:26:21;101671.94;;;16.24;66.10
72444;BME280;60449;52.016;5.414;2022-07-29T00:27:11;101669.28;;;16.21;66.73
72444;BME280;60449;52.016;5.414;2022-07-29T00:28:02;101676.38;;;16.25;66.49
72444;BME280;60449;52.016;5.414;2022-07-29T00:28:51;101668.34;;;16.33;66.46
72444;BME280;60449;52.016;5.414;2022-07-29T00:29:42;101676.47;;;15.95;66.99
72444;BME280;60449;52.016;5.414;2022-07-29T00:30:32;101671.13;;;15.83;67.45
72444;BME280;60449;52.016;5.414;2022-07-29T00:31:22;101665.81;;;15.98;66.40
72444;BME280;60449;52.016;5.414;2022-07-29T00:32:12;101668.44;;;16.06;67.22
72444;BME280;60449;52.016;5.414;2022-07-29T00:33:03;101663.09;;;16.14;67.11
72444;BME280;60449;52.016;5.414;2022-07-29T00:33:53;101660.50;;;15.95;68.54
72444;BME280;60449;52.016;5.414;2022-07-29T00:34:45;101656.97;;;15.96;67.32
72444;BME280;60449;52.016;5.414;2022-07-29T00:35:53;101655.19;;;15.80;68.02
72444;BME280;60449;52.016;5.414;2022-07-29T00:36:43;101656.09;;;15.74;68.71
72444;BME280;60449;52.016;5.414;2022-07-29T00:37:37;101662.28;;;15.96;68.02
72444;BME280;60449;52.016;5.414;2022-07-29T00:38:28;101656.94;;;15.99;67.40
72444;BME280;60449;52.016;5.414;2022-07-29T00:39:26;101654.31;;;15.93;67.72
72444;BME280;60449;52.016;5.414;2022-07-29T00:40:21;101648.09;;;15.65;69.10
72444;BME280;60449;52.016;5.414;2022-07-29T00:41:12;101645.41;;;15.80;68.55
72444;BME280;60449;52.016;5.414;2022-07-29T00:42:09;101651.63;;;15.75;68.21
72444;BME280;60449;52.016;5.414;2022-07-29T00:42:59;101641.03;;;15.65;68.52
72444;BME280;60449;52.016;5.414;2022-07-29T00:43:58;101645.41;;;15.80;68.17
72444;BME280;60449;52.016;5.414;2022-07-29T00:44:47;101644.56;;;15.66;69.29
72444;BME280;60449;52.016;5.414;2022-07-29T00:45:39;101647.19;;;15.86;69.45
72444;BME280;60449;52.016;5.414;2022-07-29T00:46:28;101641.03;;;15.73;68.45
72444;BME280;60449;52.016;5.414;2022-07-29T00:47:19;101638.38;;;15.62;68.40
72444;BME280;60449;52.016;5.414;2022-07-29T00:48:09;101643.69;;;15.62;69.47
72444;BME280;60449;52.016;5.414;2022-07-29T00:49:00;101650.78;;;15.58;70.43
72444;BME280;60449;52.016;5.414;2022-07-29T00:50:20;101647.22;;;15.66;69.06
72444;BME280;60449;52.016;5.414;2022-07-29T00:51:12;101641.88;;;15.73;69.62
72444;BME280;60449;52.016;5.414;2022-07-29T00:52:02;101642.78;;;15.57;70.87
72444;BME280;60449;52.016;5.414;2022-07-29T00:52:53;101644.56;;;15.67;69.42
72444;BME280;60449;52.016;5.414;2022-07-29T00:53:44;101641.03;;;15.64;69.71
72444;BME280;60449;52.016;5.414;2022-07-29T00:54:39;101642.81;;;15.37;71.92
72444;BME280;60449;52.016;5.414;2022-07-29T00:55:57;101641.03;;;15.50;70.07
72444;BME280;60449;52.016;5.414;2022-07-29T00:56:47;101637.50;;;15.35;71.14
72444;BME280;60449;52.016;5.414;2022-07-29T00:57:47;101642.81;;;15.35;70.63
72444;BME280;60449;52.016;5.414;2022-07-29T00:58:47;101643.72;;;15.50;70.25
72444;BME280;60449;52.016;5.414;2022-07-29T00:59:42;101633.97;;;15.49;69.69
72444;BME280;60449;52.016;5.414;2022-07-29T01:00:33;101640.16;;;15.44;70.18
72444;BME280;60449;52.016;5.414;2022-07-29T01:01:26;101629.47;;;15.68;68.52
72444;BME280;60449;52.016;5.414;2022-07-29T01:02:19;101638.38;;;15.43;68.91
72444;BME280;60449;52.016;5.414;2022-07-29T01:03:09;101629.53;;;15.40;70.12
72444;BME280;60449;52.016;5.414;2022-07-29T01:03:59;101629.53;;;15.48;69.21
72444;BME280;60449;52.016;5.414;2022-07-29T01:05:01;101633.94;;;15.58;68.67
72444;BME280;60449;52.016;5.414;2022-07-29T01:05:54;101636.59;;;15.58;69.74
72444;BME280;60449;52.016;5.414;2022-07-29T01:06:45;101627.78;;;15.42;69.45
72444;BME280;60449;52.016;5.414;2022-07-29T01:07:37;101626.91;;;15.32;69.45
72444;BME280;60449;52.016;5.414;2022-07-29T01:08:31;101633.06;;;15.20;70.37
72444;BME280;60449;52.016;5.414;2022-07-29T01:09:26;101634.88;;;15.24;70.79
72444;BME280;60449;52.016;5.414;2022-07-29T01:10:21;101631.31;;;15.28;71.18
72444;BME280;60449;52.016;5.414;2022-07-29T01:11:29;101632.22;;;15.24;69.64
72444;BME280;60449;52.016;5.414;2022-07-29T01:12:22;101635.69;;;15.64;69.12
72444;BME280;60449;52.016;5.414;2022-07-29T01:13:16;101633.97;;;15.41;70.06
72444;BME280;60449;52.016;5.414;2022-07-29T01:14:09;101630.41;;;15.37;68.77
72444;BME280;60449;52.016;5.414;2022-07-29T01:15:01;101628.66;;;15.41;68.96
72444;BME280;60449;52.016;5.414;2022-07-29T01:16:02;101635.72;;;15.43;69.16
72444;BME280;60449;52.016;5.414;2022-07-29T01:20:03;101630.41;;;15.56;69.54
72444;BME280;60449;52.016;5.414;2022-07-29T01:20:03;101636.59;;;15.50;69.44
72444;BME280;60449;52.016;5.414;2022-07-29T01:23:08;101624.19;;;15.62;69.45
72444;BME280;60449;52.016;5.414;2022-07-29T01:24:33;101629.53;;;15.23;70.57
72444;BME280;60449;52.016;5.414;2022-07-29T01:30:59;101621.56;;;15.23;69.89
72444;BME280;60449;52.016;5.414;2022-07-29T01:32:32;101618.88;;;15.49;68.55
72444;BME280;60449;52.016;5.414;2022-07-29T01:33:47;101632.19;;;15.38;69.45
72444;BME280;60449;52.016;5.414;2022-07-29T01:34:56;101630.41;;;15.54;69.03
72444;BME280;60449;52.016;5.414;2022-07-29T01:36:07;101632.13;;;15.77;69.03
72444;BME280;60449;52.016;5.414;2022-07-29T01:37:18;101625.94;;;15.78;68.90
72444;BME280;60449;52.016;5.414;2022-07-29T01:38:26;101628.59;;;15.69;68.46
72444;BME280;60449;52.016;5.414;2022-07-29T01:39:30;101631.28;;;15.47;68.84
72444;BME280;60449;52.016;5.414;2022-07-29T01:40:39;101630.41;;;15.65;69.24
72444;BME280;60449;52.016;5.414;2022-07-29T01:41:40;101631.25;;;15.75;68.38
72444;BME280;60449;52.016;5.414;2022-07-29T01:42:44;101635.69;;;15.79;67.80
72444;BME280;60449;52.016;5.414;2022-07-29T01:43:45;101630.38;;;15.85;67.31
72444;BME280;60449;52.016;5.414;2022-07-29T01:44:47;101627.69;;;15.82;67.27
72444;BME280;60449;52.016;5.414;2022-07-29T01:45:55;101641.00;;;16.01;67.61
72444;BME280;60449;52.016;5.414;2022-07-29T01:46:58;101641.88;;;15.97;66.99
72444;BME280;60449;52.016;5.414;2022-07-29T01:48:03;101639.19;;;16.02;66.27
72444;BME280;60449;52.016;5.414;2022-07-29T01:49:10;101632.09;;;16.04;65.71
72444;BME280;60449;52.016;5.414;2022-07-29T01:50:08;101640.94;;;16.06;66.08
72444;BME280;60449;52.016;5.414;2022-07-29T01:51:12;101647.19;;;16.08;65.42
72444;BME280;60449;52.016;5.414;2022-07-29T01:52:13;101637.41;;;16.10;66.25
72444;BME280;60449;52.016;5.414;2022-07-29T01:53:13;101644.47;;;16.23;66.92
72444;BME280;60449;52.016;5.414;2022-07-29T01:54:12;101640.91;;;16.23;66.33
72444;BME280;60449;52.016;5.414;2022-07-29T01:55:13;101642.66;;;16.22;66.36
72444;BME280;60449;52.016;5.414;2022-07-29T01:56:06;101645.34;;;16.14;65.77
72444;BME280;60449;52.016;5.414;2022-07-29T01:57:03;101644.50;;;16.05;66.65
72444;BME280;60449;52.016;5.414;2022-07-29T01:57:58;101639.16;;;16.17;66.43
72444;BME280;60449;52.016;5.414;2022-07-29T01:58:52;101639.22;;;16.03;66.66
72444;BME280;60449;52.016;5.414;2022-07-29T01:59:46;101650.72;;;16.05;67.05
72444;BME280;60449;52.016;5.414;2022-07-29T02:00:45;101643.56;;;16.18;67.04
72444;BME280;60449;52.016;5.414;2022-07-29T02:01:40;101638.22;;;16.29;66.50
72444;BME280;60449;52.016;5.414;2022-07-29T02:02:37;101634.78;;;15.86;67.26
72444;BME280;60449;52.016;5.414;2022-07-29T02:03:32;101640.13;;;15.94;67.56
72444;BME280;60449;52.016;5.414;2022-07-29T02:04:30;101633.00;;;16.01;66.89
72444;BME280;60449;52.016;5.414;2022-07-29T02:05:27;101635.72;;;15.61;68.67
72444;BME280;60449;52.016;5.414;2022-07-29T02:06:23;101631.25;;;15.88;67.85
72444;BME280;60449;52.016;5.414;2022-07-29T02:07:19;101635.69;;;15.67;67.99
72444;BME280;60449;52.016;5.414;2022-07-29T02:08:31;101633.94;;;15.58;69.14
72444;BME280;60449;52.016;5.414;2022-07-29T02:09:31;101641.03;;;15.65;67.35
72444;BME280;60449;52.016;5.414;2022-07-29T02:10:31;101627.72;;;15.93;66.92
72444;BME280;60449;52.016;5.414;2022-07-29T02:11:23;101625.06;;;15.78;67.80
72444;BME280;60449;52.016;5.414;2022-07-29T02:12:18;101633.03;;;15.75;66.82
72444;BME280;60449;52.016;5.414;2022-07-29T02:13:13;101630.34;;;15.99;66.64
72444;BME280;60449;52.016;5.414;2022-07-29T02:14:10;101625.94;;;15.83;67.73
72444;BME280;60449;52.016;5.414;2022-07-29T02:15:04;101633.00;;;16.03;67.24
72444;BME280;60449;52.016;5.414;2022-07-29T02:15:58;101633.03;;;15.75;68.75
72444;BME280;60449;52.016;5.414;2022-07-29T02:16:54;101635.69;;;15.67;69.15
72444;BME280;60449;52.016;5.414;2022-07-29T02:17:59;101634.81;;;15.52;69.42
72444;BME280;60449;52.016;5.414;2022-07-29T02:19:18;101618.00;;;15.58;69.61
72444;BME280;60449;52.016;5.414;2022-07-29T02:20:19;101629.50;;;15.69;69.22
72444;BME280;60449;52.016;5.414;2022-07-29T02:23:36;101625.03;;;15.89;67.88
72444;BME280;60449;52.016;5.414;2022-07-29T02:24:30;101625.09;;;15.62;68.65
72444;BME280;60449;52.016;5.414;2022-07-29T02:25:22;101622.38;;;15.75;67.44
72444;BME280;60449;52.016;5.414;2022-07-29T02:26:25;101628.63;;;15.64;69.30
72444;BME280;60449;52.016;5.414;2022-07-29T02:27:20;101611.78;;;15.61;67.59
72444;BME280;60449;52.016;5.414;2022-07-29T02:28:22;101620.66;;;15.67;68.24
72444;BME280;60449;52.016;5.414;2022-07-29T02:29:28;101626.00;;;15.28;69.70
72444;BME280;60449;52.016;5.414;2022-07-29T02:30:29;101618.00;;;15.42;68.92
72444;BME280;60449;52.016;5.414;2022-07-29T02:31:36;101628.66;;;15.36;69.32
72444;BME280;60449;52.016;5.414;2022-07-29T02:32:41;101626.00;;;15.41;68.68
72444;BME280;60449;52.016;5.414;2022-07-29T02:33:35;101633.06;;;15.31;69.63
72444;BME280;60449;52.016;5.414;2022-07-29T02:34:47;101623.31;;;15.35;69.09
72444;BME280;60449;52.016;5.414;2022-07-29T02:35:47;101621.56;;;15.41;69.32
72444;BME280;60449;52.016;5.414;2022-07-29T02:36:50;101616.25;;;15.35;69.95
72444;BME280;60449;52.016;5.414;2022-07-29T02:37:53;101621.56;;;15.10;69.62
72444;BME280;60449;52.016;5.414;2022-07-29T02:39:00;101620.69;;;15.10;70.00
72444;BME280;60449;52.016;5.414;2022-07-29T02:39:57;101615.38;;;15.13;71.13
72444;BME280;60449;52.016;5.414;2022-07-29T02:41:12;101615.34;;;15.38;69.72
72444;BME280;60449;52.016;5.414;2022-07-29T02:42:36;101609.16;;;15.37;69.26
72444;BME280;60449;52.016;5.414;2022-07-29T02:44:39;101614.47;;;15.37;68.87
72444;BME280;60449;52.016;5.414;2022-07-29T02:46:36;101623.34;;;15.36;69.09
72444;BME280;60449;52.016;5.414;2022-07-29T02:47:50;101618.00;;;15.42;69.17
72444;BME280;60449;52.016;5.414;2022-07-29T02:49:01;101619.78;;;15.50;68.71
72444;BME280;60449;52.016;5.414;2022-07-29T02:50:12;101620.69;;;15.33;68.69
72444;BME280;60449;52.016;5.414;2022-07-29T02:51:19;101623.31;;;15.58;68.90
72444;BME280;60449;52.016;5.414;2022-07-29T02:52:26;101614.50;;;15.34;69.20
72444;BME280;60449;52.016;5.414;2022-07-29T02:53:24;101611.78;;;15.47;68.86
72444;BME280;60449;52.016;5.414;2022-07-29T02:54:31;101611.81;;;15.62;67.11
72444;BME280;60449;52.016;5.414;2022-07-29T02:55:34;101617.97;;;15.73;67.15
72444;BME280;60449;52.016;5.414;2022-07-29T02:56:39;101610.91;;;15.66;68.99
72444;BME280;60449;52.016;5.414;2022-07-29T02:57:46;101609.13;;;15.59;68.22
72444;BME280;60449;52.016;5.414;2022-07-29T02:58:47;101610.91;;;15.63;68.29
72444;BME280;60449;52.016;5.414;2022-07-29T03:00:02;101618.00;;;15.47;68.99
72444;BME280;60449;52.016;5.414;2022-07-29T03:01:14;101615.38;;;15.44;69.50
72444;BME280;60449;52.016;5.414;2022-07-29T03:02:11;101617.13;;;15.25;69.03
72444;BME280;60449;52.016;5.414;2022-07-29T03:03:10;101617.13;;;15.06;70.54
72444;BME280;60449;52.016;5.414;2022-07-29T03:04:16;101616.25;;;15.26;70.06
72444;BME280;60449;52.016;5.414;2022-07-29T03:05:18;101610.94;;;15.40;69.08
72444;BME280;60449;52.016;5.414;2022-07-29T03:06:22;101614.47;;;15.53;68.52
72444;BME280;60449;52.016;5.414;2022-07-29T03:07:20;101614.47;;;15.53;69.73
72444;BME280;60449;52.016;5.414;2022-07-29T03:08:14;101611.81;;;15.40;69.89
72444;BME280;60449;52.016;5.414;2022-07-29T03:09:35;101609.16;;;15.50;69.32
72444;BME280;60449;52.016;5.414;2022-07-29T03:11:43;101610.94;;;15.23;69.62
72444;BME280;60449;52.016;5.414;2022-07-29T03:12:35;101602.97;;;15.15;70.03
72444;BME280;60449;52.016;5.414;2022-07-29T03:13:29;101606.50;;;15.20;69.46
72444;BME280;60449;52.016;5.414;2022-07-29T03:14:26;101612.72;;;15.24;69.25
72444;BME280;60449;52.016;5.414;2022-07-29T03:15:25;101603.88;;;15.22;70.51
72444;BME280;60449;52.016;5.414;2022-07-29T03:16:26;101603.88;;;15.34;69.37
72444;BME280;60449;52.016;5.414;2022-07-29T03:17:17;101597.66;;;15.32;69.05
72444;BME280;60449;52.016;5.414;2022-07-29T03:18:08;101594.97;;;15.44;69.39
72444;BME280;60449;52.016;5.414;2022-07-29T03:19:01;101593.19;;;15.43;69.75
72444;BME280;60449;52.016;5.414;2022-07-29T03:20:16;101591.44;;;15.30;69.21
72444;BME280;60449;52.016;5.414;2022-07-29T03:21:06;101591.44;;;15.27;69.64
72444;BME280;60449;52.016;5.414;2022-07-29T03:22:07;101596.75;;;15.46;69.68
72444;BME280;60449;52.016;5.414;2022-07-29T03:22:58;101592.34;;;15.35;69.62
72444;BME280;60449;52.016;5.414;2022-07-29T03:23:48;101596.78;;;15.08;70.41
72444;BME280;60449;52.016;5.414;2022-07-29T03:24:48;101586.16;;;15.33;69.18
72444;BME280;60449;52.016;5.414;2022-07-29T03:25:37;101589.69;;;15.20;68.52
72444;BME280;60449;52.016;5.414;2022-07-29T03:26:34;101595.00;;;15.20;69.62
72444;BME280;60449;52.016;5.414;2022-07-29T03:27:24;101596.75;;;15.11;70.31
72444;BME280;60449;52.016;5.414;2022-07-29T03:28:18;101588.81;;;15.00;70.31
72444;BME280;60449;52.016;5.414;2022-07-29T03:29:07;101592.34;;;14.98;71.09
72444;BME280;60449;52.016;5.414;2022-07-29T03:30:15;101595.00;;;15.04;70.93
72444;BME280;60449;52.016;5.414;2022-07-29T03:31:12;101590.56;;;15.17;69.90
72444;BME280;60449;52.016;5.414;2022-07-29T03:32:05;101587.94;;;15.19;69.65
72444;BME280;60449;52.016;5.414;2022-07-29T03:33:04;101592.34;;;15.21;69.60
72444;BME280;60449;52.016;5.414;2022-07-29T03:33:56;101589.69;;;15.13;69.84
72444;BME280;60449;52.016;5.414;2022-07-29T03:34:48;101584.38;;;14.98;70.41
72444;BME280;60449;52.016;5.414;2022-07-29T03:35:46;101586.16;;;14.97;70.18
72444;BME280;60449;52.016;5.414;2022-07-29T03:36:35;101583.50;;;15.08;71.01
72444;BME280;60449;52.016;5.414;2022-07-29T03:37:26;101576.44;;;15.17;70.46
72444;BME280;60449;52.016;5.414;2022-07-29T03:38:16;101579.94;;;15.28;70.22
72444;BME280;60449;52.016;5.414;2022-07-29T03:39:09;101585.25;;;15.08;70.72
72444;BME280;60449;52.016;5.414;2022-07-29T03:40:04;101584.38;;;15.21;71.01
72444;BME280;60449;52.016;5.414;2022-07-29T03:41:10;101574.63;;;15.12;70.00
72444;BME280;60449;52.016;5.414;2022-07-29T03:42:14;101579.06;;;15.06;70.13
72444;BME280;60449;52.016;5.414;2022-07-29T03:43:18;101584.38;;;15.07;70.20
72444;BME280;60449;52.016;5.414;2022-07-29T03:44:23;101582.63;;;15.06;70.35
72444;BME280;60449;52.016;5.414;2022-07-29T03:45:41;101570.22;;;15.08;70.21
72444;BME280;60449;52.016;5.414;2022-07-29T03:46:41;101570.22;;;15.21;70.04
72444;BME280;60449;52.016;5.414;2022-07-29T03:47:37;101574.63;;;14.97;70.39
72444;BME280;60449;52.016;5.414;2022-07-29T03:48:42;101572.84;;;14.99;70.65
72444;BME280;60449;52.016;5.414;2022-07-29T03:50:02;101575.53;;;14.96;70.10
72444;BME280;60449;52.016;5.414;2022-07-29T03:51:00;101569.31;;;15.17;69.47
72444;BME280;60449;52.016;5.414;2022-07-29T03:52:02;101574.63;;;15.00;69.89
72444;BME280;60449;52.016;5.414;2022-07-29T03:52:53;101572.88;;;15.08;70.29
72444;BME280;60449;52.016;5.414;2022-07-29T03:53:49;101576.41;;;15.26;70.29
72444;BME280;60449;52.016;5.414;2022-07-29T03:54:45;101578.19;;;15.08;70.23
72444;BME280;60449;52.016;5.414;2022-07-29T03:55:50;101580.84;;;15.11;70.38
72444;BME280;60449;52.016;5.414;2022-07-29T03:56:52;101579.06;;;14.89;70.68
72444;BME280;60449;52.016;5.414;2022-07-29T03:57:45;101584.34;;;14.82;70.53
72444;BME280;60449;52.016;5.414;2022-07-29T03:58:45;101582.59;;;14.91;70.65
72444;BME280;60449;52.016;5.414;2022-07-29T04:00:04;101580.84;;;15.04;69.47
72444;BME280;60449;52.016;5.414;2022-07-29T04:01:08;101583.50;;;15.10;69.39
72444;BME280;60449;52.016;5.414;2022-07-29T04:02:16;101584.38;;;15.12;69.17
72444;BME280;60449;52.016;5.414;2022-07-29T04:03:06;101591.44;;;15.14;68.78
72444;BME280;60449;52.016;5.414;2022-07-29T04:04:20;101586.16;;;15.02;68.56
72444;BME280;60449;52.016;5.414;2022-07-29T04:07:04;101586.16;;;15.21;68.84
72444;BME280;60449;52.016;5.414;2022-07-29T04:08:09;101587.03;;;15.40;68.09
72444;BME280;60449;52.016;5.414;2022-07-29T04:09:09;101587.03;;;15.38;68.15
72444;BME280;60449;52.016;5.414;2022-07-29T04:09:59;101577.28;;;15.40;68.78
72444;BME280;60449;52.016;5.414;2022-07-29T04:10:52;101579.03;;;15.51;67.94
72444;BME280;60449;52.016;5.414;2022-07-29T04:11:56;101580.78;;;15.46;69.04
72444;BME280;60449;52.016;5.414;2022-07-29T04:12:46;101574.63;;;15.29;68.56
72444;BME280;60449;52.016;5.414;2022-07-29T04:13:43;101572.84;;;15.22;69.40
72444;BME280;60449;52.016;5.414;2022-07-29T04:14:35;101576.41;;;14.99;69.75
72444;BME280;60449;52.016;5.414;2022-07-29T04:16:00;101572.00;;;14.98;69.80
72444;BME280;60449;52.016;5.414;2022-07-29T04:16:58;101572.88;;;14.90;69.88
72444;BME280;60449;52.016;5.414;2022-07-29T04:17:50;101582.63;;;15.03;70.21
72444;BME280;60449;52.016;5.414;2022-07-29T04:18:48;101574.63;;;14.86;69.30
72444;BME280;60449;52.016;5.414;2022-07-29T04:19:49;101576.41;;;14.98;69.34
72444;BME280;60449;52.016;5.414;2022-07-29T04:20:40;101579.06;;;15.04;69.78
72444;BME280;60449;52.016;5.414;2022-07-29T04:21:31;101570.22;;;15.11;70.51
72444;BME280;60449;52.016;5.414;2022-07-29T04:22:27;101575.53;;;15.05;69.89
72444;BME280;60449;52.016;5.414;2022-07-29T04:23:16;101573.75;;;14.95;70.75
72444;BME280;60449;52.016;5.414;2022-07-29T04:24:14;101572.88;;;15.00;70.16
72444;BME280;60449;52.016;5.414;2022-07-29T04:25:05;101568.44;;;14.82;70.74
72444;BME280;60449;52.016;5.414;2022-07-29T04:26:01;101571.09;;;14.99;69.66
72444;BME280;60449;52.016;5.414;2022-07-29T04:26:51;101564.91;;;15.04;70.27
72444;BME280;60449;52.016;5.414;2022-07-29T04:27:42;101570.22;;;14.93;70.78
72444;BME280;60449;52.016;5.414;2022-07-29T04:28:53;101564.88;;;14.71;70.84
72444;BME280;60449;52.016;5.414;2022-07-29T04:29:51;101568.44;;;14.76;70.42
72444;BME280;60449;52.016;5.414;2022-07-29T04:30:40;101566.59;;;14.56;71.55
72444;BME280;60449;52.016;5.414;2022-07-29T04:31:31;101573.66;;;14.51;72.10
72444;BME280;60449;52.016;5.414;2022-07-29T04:32:31;101568.34;;;14.62;71.41
72444;BME280;60449;52.016;5.414;2022-07-29T04:33:26;101565.72;;;14.68;71.38
72444;BME280;60449;52.016;5.414;2022-07-29T04:34:15;101568.38;;;14.56;71.28
72444;BME280;60449;52.016;5.414;2022-07-29T04:35:45;101570.19;;;14.77;71.38
72444;BME280;60449;52.016;5.414;2022-07-29T04:36:43;101561.28;;;14.47;72.47
72444;BME280;60449;52.016;5.414;2022-07-29T04:37:33;101562.16;;;14.55;71.97
72444;BME280;60449;52.016;5.414;2022-07-29T04:38:27;101567.47;;;14.52;72.13
72444;BME280;60449;52.016;5.414;2022-07-29T04:39:16;101574.63;;;14.78;71.45
72444;BME280;60449;52.016;5.414;2022-07-29T04:40:09;101568.38;;;14.64;71.70
72444;BME280;60449;52.016;5.414;2022-07-29T04:41:11;101567.50;;;14.58;72.08
72444;BME280;60449;52.016;5.414;2022-07-29T04:42:04;101572.75;;;14.43;72.29
72444;BME280;60449;52.016;5.414;2022-07-29T04:42:54;101572.75;;;14.43;71.95
72444;BME280;60449;52.016;5.414;2022-07-29T04:43:58;101586.13;;;14.83;71.17
72444;BME280;60449;52.016;5.414;2022-07-29T04:45:15;101580.75;;;14.62;71.40
72444;BME280;60449;52.016;5.414;2022-07-29T04:46:06;101588.78;;;14.82;70.65
72444;BME280;60449;52.016;5.414;2022-07-29T04:46:57;101579.06;;;15.07;69.86
72444;BME280;60449;52.016;5.414;2022-07-29T04:47:47;101580.84;;;15.10;69.04
72444;BME280;60449;52.016;5.414;2022-07-29T04:48:37;101590.56;;;14.98;68.80
72444;BME280;60449;52.016;5.414;2022-07-29T04:49:28;101587.03;;;15.23;67.94
72444;BME280;60449;52.016;5.414;2022-07-29T04:50:17;101590.56;;;15.37;67.97
72444;BME280;60449;52.016;5.414;2022-07-29T04:51:07;101589.72;;;15.17;67.47
72444;BME280;60449;52.016;5.414;2022-07-29T04:52:04;101583.47;;;15.35;66.43
72444;BME280;60449;52.016;5.414;2022-07-29T04:53:04;101583.47;;;15.47;67.17
72444;BME280;60449;52.016;5.414;2022-07-29T04:53:54;101580.78;;;15.64;66.51
72444;BME280;60449;52.016;5.414;2022-07-29T04:54:44;101578.09;;;15.61;67.25
72444;BME280;60449;52.016;5.414;2022-07-29T04:55:34;101579.81;;;15.82;66.55
72444;BME280;60449;52.016;5.414;2022-07-29T04:56:27;101580.78;;;15.63;67.96
72444;BME280;60449;52.016;5.414;2022-07-29T04:57:27;101576.31;;;15.72;67.95
72444;BME280;60449;52.016;5.414;2022-07-29T04:58:21;101570.16;;;15.53;68.64
72444;BME280;60449;52.016;5.414;2022-07-29T04:59:12;101573.72;;;15.51;68.21
72444;BME280;60449;52.016;5.414;2022-07-29T05:00:04;101577.28;;;15.40;68.15
72444;BME280;60449;52.016;5.414;2022-07-29T05:00:55;101579.94;;;15.29;68.71
72444;BME280;60449;52.016;5.414;2022-07-29T05:01:47;101574.66;;;15.26;68.32
72444;BME280;60449;52.016;5.414;2022-07-29T05:02:38;101578.16;;;15.27;68.33
72444;BME280;60449;52.016;5.414;2022-07-29T05:03:31;101569.28;;;15.43;68.04
72444;BME280;60449;52.016;5.414;2022-07-29T05:04:33;101579.06;;;15.35;69.50
72444;BME280;60449;52.016;5.414;2022-07-29T05:05:31;101571.97;;;15.40;69.12
72444;BME280;60449;52.016;5.414;2022-07-29T05:06:21;101572.84;;;15.38;68.54
72444;BME280;60449;52.016;5.414;2022-07-29T05:07:15;101572.84;;;15.49;68.40
72444;BME280;60449;52.016;5.414;2022-07-29T05:08:04;101581.72;;;15.13;69.12
72444;BME280;60449;52.016;5.414;2022-07-29T05:08:55;101584.38;;;15.35;68.57
72444;BME280;60449;52.016;5.414;2022-07-29T05:09:44;101586.13;;;15.35;68.58
72444;BME280;60449;52.016;5.414;2022-07-29T05:10:38;101585.25;;;15.54;67.89
72444;BME280;60449;52.016;5.414;2022-07-29T05:11:28;101586.16;;;15.18;68.35
72444;BME280;60449;52.016;5.414;2022-07-29T05:12:26;101592.34;;;15.06;67.89
72444;BME280;60449;52.016;5.414;2022-07-29T05:13:30;101596.75;;;15.56;66.69
72444;BME280;60449;52.016;5.414;2022-07-29T05:14:22;101596.75;;;15.19;67.49
72444;BME280;60449;52.016;5.414;2022-07-29T05:15:12;101594.91;;;14.61;69.35
72444;BME280;60449;52.016;5.414;2022-07-29T05:16:07;101599.28;;;14.48;69.62
72444;BME280;60449;52.016;5.414;2022-07-29T05:17:18;101604.59;;;14.49;69.76
72444;BME280;60449;52.016;5.414;2022-07-29T05:18:16;101609.88;;;14.38;70.55